Time;durP1;ratioP1;P1;durP2;ratioP2;P2;SDS_P1;SDS_P2;PMS_P1;PMS_P2;Temp;Humidity;BMP_temperature;BMP_pressure;BME280_temperature;BME280_humidity;BME280_pressure;Samples;Min_cycle;Max_cycle;Signal;HPM_P1;HPM_P2
2021/11/27 00:00:26;;;;;;;18.63;9.88;;;1.70;99.90;;;;;;5069948;28;20183;-76
2021/11/27 00:02:53;;;;;;;16.92;7.22;;;1.70;99.90;;;;;;5068635;28;20183;-76
2021/11/27 00:05:22;;;;;;;18.13;9.32;;;1.80;99.90;;;;;;5069754;28;20153;-75
2021/11/27 00:07:48;;;;;;;18.42;9.15;;;1.70;99.90;;;;;;5069760;28;20179;-75
2021/11/27 00:10:17;;;;;;;13.82;7.35;;;1.70;99.90;;;;;;5068387;28;20243;-76
2021/11/27 00:12:44;;;;;;;12.73;7.38;;;1.70;99.90;;;;;;5068295;28;20346;-76
2021/11/27 00:15:11;;;;;;;18.63;9.15;;;1.70;99.90;;;;;;5069345;28;20153;-75
2021/11/27 00:17:38;;;;;;;16.50;7.60;;;1.70;99.90;;;;;;5069593;28;20184;-76
2021/11/27 00:20:10;;;;;;;13.88;7.22;;;1.80;99.90;;;;;;5069599;28;20157;-75
2021/11/27 00:22:36;;;;;;;13.70;8.85;;;1.80;99.90;;;;;;5069384;28;20188;-77
2021/11/27 00:25:04;;;;;;;12.35;7.72;;;1.80;99.90;;;;;;5069619;28;20176;-76
2021/11/27 00:27:29;;;;;;;13.43;7.88;;;1.80;99.90;;;;;;5068104;28;20176;-76
2021/11/27 00:29:55;;;;;;;13.05;7.15;;;1.80;99.90;;;;;;5068128;28;20169;-76
2021/11/27 00:32:22;;;;;;;14.63;7.35;;;1.80;99.90;;;;;;5069220;28;20204;-76
2021/11/27 00:34:48;;;;;;;15.45;8.55;;;1.70;99.90;;;;;;5069323;28;20184;-76
2021/11/27 00:37:14;;;;;;;11.77;8.40;;;1.80;99.90;;;;;;5069307;28;20535;-76
2021/11/27 00:39:41;;;;;;;13.40;7.28;;;1.80;99.90;;;;;;5068055;28;20173;-76
2021/11/27 00:42:07;;;;;;;12.07;7.78;;;1.80;99.90;;;;;;5069240;28;20239;-76
2021/11/27 00:44:33;;;;;;;11.35;6.88;;;1.80;99.90;;;;;;5069339;28;20172;-76
2021/11/27 00:46:59;;;;;;;12.38;7.45;;;1.80;99.90;;;;;;5069064;28;20161;-75
2021/11/27 00:49:25;;;;;;;10.10;7.22;;;1.80;99.90;;;;;;5069166;28;20243;-76
2021/11/27 00:51:52;;;;;;;11.63;8.15;;;1.80;99.90;;;;;;5069043;28;20195;-76
2021/11/27 00:54:21;;;;;;;15.02;8.48;;;1.80;99.90;;;;;;5069048;28;20195;-75
2021/11/27 00:56:49;;;;;;;11.77;7.43;;;1.80;99.90;;;;;;5069160;28;20176;-75
2021/11/27 00:59:16;;;;;;;14.63;7.90;;;1.70;99.90;;;;;;5067725;28;20666;-75
2021/11/27 01:01:43;;;;;;;11.88;8.85;;;1.70;99.90;;;;;;5068970;28;20196;-76
2021/11/27 01:04:09;;;;;;;13.80;7.35;;;1.90;99.90;;;;;;5067728;28;20207;-75
2021/11/27 01:06:35;;;;;;;14.82;8.02;;;1.90;99.90;;;;;;5068985;28;20157;-75
2021/11/27 01:09:06;;;;;;;15.05;8.23;;;1.90;99.90;;;;;;5068954;28;20186;-75
2021/11/27 01:11:39;;;;;;;12.52;7.43;;;1.90;99.90;;;;;;5068921;28;20200;-76
2021/11/27 01:14:10;;;;;;;15.82;8.15;;;1.80;99.90;;;;;;5067823;28;20172;-76
2021/11/27 01:16:39;;;;;;;13.77;8.93;;;1.80;99.90;;;;;;5067723;28;20157;-75
2021/11/27 01:19:07;;;;;;;11.30;7.82;;;1.80;99.90;;;;;;5067556;28;20161;-75
2021/11/27 01:21:36;;;;;;;17.60;8.85;;;1.80;99.90;;;;;;5067473;28;20200;-75
2021/11/27 01:24:06;;;;;;;13.93;9.23;;;1.80;99.90;;;;;;5068887;28;20234;-75
2021/11/27 01:26:34;;;;;;;14.88;8.10;;;1.80;99.90;;;;;;5070413;28;20164;-76
2021/11/27 01:29:00;;;;;;;16.63;8.63;;;1.80;99.90;;;;;;5072767;28;20160;-76
2021/11/27 01:31:27;;;;;;;17.27;8.90;;;1.90;99.90;;;;;;5071201;28;20226;-75
2021/11/27 01:33:53;;;;;;;16.70;9.55;;;1.90;99.90;;;;;;5072837;28;20629;-75
2021/11/27 01:36:19;;;;;;;18.05;8.82;;;1.90;99.90;;;;;;5071421;28;20173;-76
2021/11/27 01:38:45;;;;;;;18.50;9.98;;;1.90;99.90;;;;;;5072481;28;20184;-76
2021/11/27 01:41:14;;;;;;;15.90;9.63;;;1.90;99.90;;;;;;5072542;28;20568;-75
2021/11/27 01:43:43;;;;;;;14.55;8.35;;;1.90;99.90;;;;;;5071204;28;20176;-76
2021/11/27 01:46:09;;;;;;;13.32;8.40;;;1.80;99.90;;;;;;5072432;28;20160;-76
2021/11/27 01:48:38;;;;;;;18.75;9.55;;;1.90;99.90;;;;;;5071021;28;20185;-76
2021/11/27 01:51:12;;;;;;;15.68;8.65;;;1.90;99.90;;;;;;5072140;28;20223;-76
2021/11/27 01:53:42;;;;;;;19.95;9.20;;;2.00;99.90;;;;;;5071051;28;20251;-76
2021/11/27 01:56:13;;;;;;;15.05;8.65;;;2.10;99.90;;;;;;5072143;28;20161;-75
2021/11/27 01:58:40;;;;;;;19.63;10.43;;;2.00;99.90;;;;;;5070733;28;20235;-76
2021/11/27 02:01:13;;;;;;;18.40;11.20;;;2.10;99.90;;;;;;5072046;28;20188;-75
2021/11/27 02:03:40;;;;;;;21.83;12.38;;;2.00;99.90;;;;;;5072095;28;20161;-76
2021/11/27 02:06:09;;;;;;;30.90;13.95;;;1.90;99.90;;;;;;5070695;28;20187;-76
2021/11/27 02:08:36;;;;;;;29.58;13.68;;;1.90;99.90;;;;;;5071991;28;20157;-75
2021/11/27 02:11:05;;;;;;;29.17;15.98;;;1.90;99.90;;;;;;5070652;28;20697;-75
2021/11/27 02:13:31;;;;;;;37.40;16.08;;;1.80;99.90;;;;;;5071853;28;20176;-75
2021/11/27 02:15:57;;;;;;;33.28;15.30;;;1.80;99.90;;;;;;5071823;28;20683;-75
2021/11/27 02:18:23;;;;;;;34.72;15.52;;;1.80;99.90;;;;;;5070563;28;20164;-75
2021/11/27 02:21:04;;;;;;;31.90;15.55;;;1.70;99.90;;;;;;5070513;28;20196;-75
2021/11/27 02:23:31;;;;;;;27.85;14.00;;;1.80;99.90;;;;;;5070409;28;20184;-76
2021/11/27 02:26:02;;;;;;;32.50;13.98;;;1.80;99.90;;;;;;5071700;28;20161;-75
2021/11/27 02:28:29;;;;;;;43.55;14.75;;;1.90;99.90;;;;;;5070328;28;20228;-75
2021/11/27 02:30:55;;;;;;;42.88;15.15;;;1.80;99.90;;;;;;5070275;28;20226;-75
2021/11/27 02:33:21;;;;;;;22.25;11.90;;;1.80;99.90;;;;;;5071598;28;20157;-76
2021/11/27 02:35:47;;;;;;;41.35;14.18;;;1.80;99.90;;;;;;5070169;28;20184;-76
2021/11/27 02:38:13;;;;;;;41.85;16.35;;;1.80;99.90;;;;;;5069914;28;20161;-75
2021/11/27 02:40:41;;;;;;;29.60;13.45;;;1.80;99.90;;;;;;5069806;28;20184;-76
2021/11/27 02:43:08;;;;;;;48.38;15.75;;;1.70;99.90;;;;;;5071193;28;20169;-75
2021/11/27 02:45:34;;;;;;;31.85;14.75;;;1.70;99.90;;;;;;5070000;28;20173;-75
2021/11/27 02:48:00;;;;;;;31.60;14.55;;;1.60;99.90;;;;;;5066801;28;20185;-75
2021/11/27 02:50:26;;;;;;;36.38;15.18;;;1.60;99.90;;;;;;5051149;28;20200;-75
2021/11/27 02:52:53;;;;;;;27.83;12.60;;;1.60;99.90;;;;;;5049779;28;20201;-75
2021/11/27 02:55:19;;;;;;;31.17;14.63;;;1.60;99.90;;;;;;5061855;28;20195;-75
2021/11/27 02:57:45;;;;;;;24.60;12.60;;;1.60;99.90;;;;;;5069609;28;20225;-75
2021/11/27 03:00:17;;;;;;;34.33;13.20;;;1.60;99.90;;;;;;5069749;28;20184;-75
2021/11/27 03:02:44;;;;;;;35.13;12.23;;;1.60;99.90;;;;;;5070913;28;20212;-75
2021/11/27 03:05:12;;;;;;;29.77;12.90;;;1.60;99.90;;;;;;5058643;28;20188;-76
2021/11/27 03:07:38;;;;;;;30.63;12.68;;;1.70;99.90;;;;;;5058865;28;20204;-76
2021/11/27 03:10:07;;;;;;;27.50;13.57;;;1.70;99.90;;;;;;5069511;28;20175;-76
2021/11/27 03:12:34;;;;;;;32.90;15.00;;;1.70;99.90;;;;;;5069014;28;20200;-75
2021/11/27 03:15:00;;;;;;;32.08;13.77;;;1.60;99.90;;;;;;5070601;28;20149;-75
2021/11/27 03:17:26;;;;;;;32.17;15.15;;;1.50;99.90;;;;;;5070617;28;20164;-76
2021/11/27 03:19:52;;;;;;;36.40;15.20;;;1.50;99.90;;;;;;5070635;28;20157;-75
2021/11/27 03:22:22;;;;;;;33.97;12.48;;;1.50;99.90;;;;;;5068953;28;20215;-75
2021/11/27 03:24:48;;;;;;;29.60;15.15;;;1.50;99.90;;;;;;5070557;28;20160;-76
2021/11/27 03:27:16;;;;;;;31.60;14.02;;;1.50;99.90;;;;;;5069049;28;20268;-75
2021/11/27 03:29:43;;;;;;;36.92;15.30;;;1.50;99.90;;;;;;5070491;28;20165;-75
2021/11/27 03:32:12;;;;;;;40.22;13.85;;;1.50;99.90;;;;;;5070252;28;20283;-75
2021/11/27 03:34:38;;;;;;;37.28;15.43;;;1.50;99.90;;;;;;5068560;28;20165;-75
2021/11/27 03:37:04;;;;;;;31.02;11.68;;;1.50;99.90;;;;;;5070336;28;20215;-76
2021/11/27 03:39:31;;;;;;;37.05;13.57;;;1.40;99.90;;;;;;5068777;28;20173;-75
2021/11/27 03:42:01;;;;;;;43.78;13.70;;;1.40;99.90;;;;;;5070088;28;20186;-76
2021/11/27 03:44:27;;;;;;;42.65;14.63;;;1.40;99.90;;;;;;5070158;28;20161;-76
2021/11/27 03:46:53;;;;;;;34.13;15.63;;;1.30;99.90;;;;;;5068837;28;20203;-76
2021/11/27 03:49:23;;;;;;;53.30;14.77;;;1.30;99.90;;;;;;5067997;28;20193;-76
2021/11/27 03:51:50;;;;;;;35.95;13.50;;;1.30;99.90;;;;;;5068404;28;20192;-76
2021/11/27 03:54:17;;;;;;;38.33;13.48;;;1.20;99.90;;;;;;5068638;28;20161;-76
2021/11/27 03:56:43;;;;;;;27.33;12.75;;;1.20;99.90;;;;;;5069688;28;20192;-76
2021/11/27 03:59:08;;;;;;;38.25;12.80;;;1.10;99.90;;;;;;5069346;28;20216;-75
2021/11/27 04:01:35;;;;;;;28.10;10.60;;;1.10;99.90;;;;;;5069699;28;20157;-76
2021/11/27 04:04:03;;;;;;;38.40;11.02;;;1.10;99.90;;;;;;5068520;28;20168;-76
2021/11/27 04:06:31;;;;;;;27.15;12.00;;;1.10;99.90;;;;;;5069596;28;20192;-76
2021/11/27 04:08:59;;;;;;;40.83;12.25;;;1.10;99.90;;;;;;5069634;28;20187;-76
2021/11/27 04:11:27;;;;;;;28.98;12.50;;;1.10;99.90;;;;;;5069542;28;20191;-76
2021/11/27 04:13:54;;;;;;;32.63;11.48;;;1.10;99.90;;;;;;5068263;28;20172;-76
2021/11/27 04:16:20;;;;;;;29.10;10.30;;;1.10;99.90;;;;;;5068385;28;20568;-76
2021/11/27 04:18:46;;;;;;;28.65;10.60;;;1.00;99.90;;;;;;5069492;28;20153;-75
2021/11/27 04:21:14;;;;;;;26.75;10.77;;;1.00;99.90;;;;;;5068204;28;20169;-75
2021/11/27 04:23:42;;;;;;;27.15;11.15;;;1.00;99.90;;;;;;5068210;28;20169;-75
2021/11/27 04:26:08;;;;;;;34.97;10.93;;;1.00;99.90;;;;;;5068020;28;20193;-75
2021/11/27 04:28:34;;;;;;;27.17;10.50;;;1.00;99.90;;;;;;5068020;28;20204;-75
2021/11/27 04:31:00;;;;;;;34.65;10.73;;;1.00;99.90;;;;;;5068070;28;20168;-75
2021/11/27 04:33:26;;;;;;;28.70;10.50;;;1.00;99.90;;;;;;5069376;28;20168;-75
2021/11/27 04:35:54;;;;;;;28.08;11.18;;;1.10;99.90;;;;;;5067972;28;20203;-75
2021/11/27 04:38:20;;;;;;;26.02;11.80;;;1.10;99.90;;;;;;5069294;28;20160;-75
2021/11/27 04:40:46;;;;;;;38.22;12.75;;;1.10;99.90;;;;;;5069287;28;20176;-75
2021/11/27 04:43:12;;;;;;;30.55;12.10;;;1.00;99.90;;;;;;5067944;28;20637;-75
2021/11/27 04:45:38;;;;;;;25.63;10.30;;;1.10;99.90;;;;;;5067918;28;20192;-75
2021/11/27 04:48:04;;;;;;;26.67;10.13;;;1.10;99.90;;;;;;5067816;28;20176;-75
2021/11/27 04:50:31;;;;;;;26.23;11.13;;;1.10;99.90;;;;;;5067807;28;20184;-76
2021/11/27 04:52:57;;;;;;;28.05;11.32;;;1.10;99.90;;;;;;5068974;28;20207;-76
2021/11/27 04:55:24;;;;;;;27.25;10.73;;;1.10;99.90;;;;;;5068948;28;20192;-76
2021/11/27 04:57:50;;;;;;;33.20;12.63;;;1.10;99.90;;;;;;5068746;28;20216;-76
2021/11/27 05:00:26;;;;;;;24.35;11.68;;;1.00;99.90;;;;;;5070163;28;20171;-76
2021/11/27 05:02:53;;;;;;;27.67;9.93;;;1.00;99.90;;;;;;5071822;28;20168;-76
2021/11/27 05:05:20;;;;;;;22.13;8.93;;;1.00;99.90;;;;;;5071748;28;20207;-77
2021/11/27 05:07:45;;;;;;;22.70;10.68;;;1.00;99.90;;;;;;5073200;28;20161;-77
2021/11/27 05:10:12;;;;;;;23.10;8.80;;;1.00;99.90;;;;;;5071601;28;20200;-77
2021/11/27 05:12:39;;;;;;;23.40;9.82;;;1.10;99.90;;;;;;5071526;28;20196;-78
2021/11/27 05:15:07;;;;;;;28.02;10.10;;;1.00;99.90;;;;;;5072911;28;20180;-77
2021/11/27 05:17:33;;;;;;;20.10;8.23;;;1.00;99.90;;;;;;5071604;28;20171;-78
2021/11/27 05:19:59;;;;;;;15.88;9.20;;;1.00;99.90;;;;;;5072989;28;20581;-78
2021/11/27 05:22:25;;;;;;;16.13;9.10;;;1.00;99.90;;;;;;5072821;28;20173;-78
2021/11/27 05:24:51;;;;;;;17.95;9.27;;;1.10;99.90;;;;;;5071551;28;20176;-78
2021/11/27 05:27:18;;;;;;;15.95;8.20;;;1.10;99.90;;;;;;5072719;28;20160;-78
2021/11/27 05:29:45;;;;;;;20.95;9.50;;;1.10;99.90;;;;;;5072738;28;20229;-78
2021/11/27 05:32:28;;;;;;;23.77;8.50;;;1.10;99.90;;;;;;5071269;28;20279;-78
2021/11/27 05:34:55;;;;;;;17.15;8.63;;;1.10;99.90;;;;;;5071199;28;20161;-78
2021/11/27 05:37:22;;;;;;;25.33;9.52;;;1.10;99.90;;;;;;5071283;28;20167;-79
2021/11/27 05:39:48;;;;;;;27.52;9.57;;;1.00;99.90;;;;;;5071159;28;20167;-78
2021/11/27 05:42:16;;;;;;;30.27;9.48;;;0.90;99.90;;;;;;5071081;28;20196;-79
2021/11/27 05:44:43;;;;;;;25.50;10.05;;;0.90;99.90;;;;;;5071028;28;20165;-78
2021/11/27 05:47:09;;;;;;;23.88;11.27;;;0.90;99.90;;;;;;5072511;28;20161;-79
2021/11/27 05:49:36;;;;;;;22.73;10.63;;;0.80;99.90;;;;;;5070968;28;20169;-79
2021/11/27 05:52:03;;;;;;;17.55;9.75;;;0.80;99.90;;;;;;5070838;28;20188;-79
2021/11/27 05:54:29;;;;;;;19.25;10.20;;;0.80;99.90;;;;;;5070839;28;20187;-79
2021/11/27 05:56:55;;;;;;;17.00;8.63;;;0.80;99.90;;;;;;5070679;28;20291;-80
2021/11/27 05:59:21;;;;;;;16.27;7.93;;;0.90;99.90;;;;;;5070703;28;20203;-81
2021/11/27 06:01:47;;;;;;;28.20;11.13;;;0.90;99.90;;;;;;5070767;28;20195;-83
2021/11/27 06:04:14;;;;;;;20.20;9.18;;;0.90;99.90;;;;;;5070978;28;20240;-84
2021/11/27 06:06:39;;;;;;;30.08;8.07;;;0.80;99.90;;;;;;5073345;28;20192;-84
2021/11/27 06:09:05;;;;;;;17.40;7.60;;;0.80;99.90;;;;;;5073565;28;20175;-84
2021/11/27 06:11:31;;;;;;;16.42;8.60;;;0.80;99.90;;;;;;5073208;28;20207;-84
2021/11/27 06:13:57;;;;;;;24.83;9.50;;;0.80;99.90;;;;;;5073636;28;20220;-84
2021/11/27 06:16:23;;;;;;;18.67;8.93;;;0.80;99.90;;;;;;5070829;28;20197;-83
2021/11/27 06:18:49;;;;;;;22.92;7.90;;;0.90;99.90;;;;;;5070380;28;20539;-82
2021/11/27 06:21:20;;;;;;;23.05;8.00;;;0.90;99.90;;;;;;5071777;28;20168;-83
2021/11/27 06:23:47;;;;;;;18.10;7.57;;;0.90;99.90;;;;;;5071756;28;20157;-83
2021/11/27 06:26:13;;;;;;;14.02;8.68;;;0.90;99.90;;;;;;5070845;28;20184;-82
2021/11/27 06:28:39;;;;;;;15.13;8.48;;;0.90;99.90;;;;;;5070046;28;20161;-82
2021/11/27 06:31:05;;;;;;;14.48;8.15;;;1.00;99.90;;;;;;5071533;28;20182;-81
2021/11/27 06:33:31;;;;;;;21.42;6.88;;;0.90;99.90;;;;;;5070329;28;20176;-81
2021/11/27 06:35:57;;;;;;;19.75;7.85;;;0.90;99.90;;;;;;5071236;28;20160;-81
2021/11/27 06:38:23;;;;;;;15.63;7.32;;;0.90;99.90;;;;;;5071388;28;20192;-81
2021/11/27 06:40:49;;;;;;;11.48;6.88;;;0.90;99.90;;;;;;5070093;28;20165;-81
2021/11/27 06:43:16;;;;;;;12.23;6.57;;;0.90;99.90;;;;;;5070110;28;20191;-82
2021/11/27 06:45:42;;;;;;;12.23;6.82;;;0.90;99.90;;;;;;5070050;28;20165;-82
2021/11/27 06:48:08;;;;;;;21.27;8.60;;;0.90;99.90;;;;;;5071134;28;20222;-81
2021/11/27 06:50:34;;;;;;;14.50;7.38;;;0.90;99.90;;;;;;5069806;28;20168;-81
2021/11/27 06:53:00;;;;;;;14.52;7.65;;;1.00;99.90;;;;;;5070896;28;20204;-80
2021/11/27 06:55:26;;;;;;;14.80;8.77;;;1.00;99.90;;;;;;5071475;28;20157;-80
2021/11/27 06:57:52;;;;;;;10.23;6.18;;;1.10;99.90;;;;;;5069519;28;20599;-80
2021/11/27 07:00:18;;;;;;;9.90;6.18;;;1.00;99.90;;;;;;5069692;28;20274;-79
2021/11/27 07:02:44;;;;;;;10.82;6.40;;;1.10;99.90;;;;;;5069635;28;20256;-79
2021/11/27 07:05:10;;;;;;;13.30;6.28;;;1.10;99.90;;;;;;5069570;28;20197;-79
2021/11/27 07:07:36;;;;;;;16.77;8.20;;;1.10;99.90;;;;;;5070794;28;20200;-79
2021/11/27 07:10:02;;;;;;;9.25;5.57;;;1.00;99.90;;;;;;5068249;28;20187;-77
2021/11/27 07:12:28;;;;;;;9.25;5.70;;;1.10;99.90;;;;;;5069116;28;20242;-77
2021/11/27 07:14:54;;;;;;;7.30;5.53;;;1.10;99.90;;;;;;5070517;28;20220;-78
2021/11/27 07:17:20;;;;;;;7.38;5.78;;;1.10;99.90;;;;;;5068929;28;20227;-78
2021/11/27 07:19:46;;;;;;;9.60;5.75;;;1.10;99.90;;;;;;5070392;28;20161;-77
2021/11/27 07:22:12;;;;;;;10.80;6.38;;;1.20;99.90;;;;;;5070406;28;20228;-78
2021/11/27 07:24:37;;;;;;;8.27;5.57;;;1.20;99.90;;;;;;5068015;28;20645;-78
2021/11/27 07:27:06;;;;;;;11.90;6.55;;;1.20;99.90;;;;;;5068787;28;20307;-78
2021/11/27 07:29:38;;;;;;;9.35;5.63;;;1.20;99.90;;;;;;5070280;28;20160;-77
2021/11/27 07:32:05;;;;;;;10.82;5.20;;;1.10;99.90;;;;;;5070121;28;20618;-77
2021/11/27 07:34:31;;;;;;;12.95;6.80;;;1.10;99.90;;;;;;5070171;28;20153;-78
2021/11/27 07:36:57;;;;;;;9.68;6.00;;;1.10;99.90;;;;;;5068865;28;20160;-79
2021/11/27 07:39:24;;;;;;;8.35;5.18;;;1.10;99.90;;;;;;5070076;28;20393;-79
2021/11/27 07:41:50;;;;;;;7.53;5.07;;;1.10;99.90;;;;;;5067579;28;20165;-79
2021/11/27 07:44:16;;;;;;;8.52;5.85;;;1.20;99.90;;;;;;5067598;28;20172;-79
2021/11/27 07:46:47;;;;;;;9.93;5.68;;;1.30;99.90;;;;;;5066702;28;20283;-80
2021/11/27 07:49:14;;;;;;;7.40;5.32;;;1.30;99.90;;;;;;5065869;28;20171;-81
2021/11/27 07:51:40;;;;;;;10.43;5.57;;;1.40;99.90;;;;;;5065968;28;20279;-80
2021/11/27 07:54:06;;;;;;;8.98;5.88;;;1.40;99.90;;;;;;5066217;28;20609;-80
2021/11/27 07:56:32;;;;;;;9.13;5.55;;;1.40;99.90;;;;;;5066206;28;20188;-80
2021/11/27 07:58:58;;;;;;;8.13;5.55;;;1.40;99.90;;;;;;5066134;28;20232;-80
2021/11/27 08:01:24;;;;;;;9.95;6.18;;;1.40;99.90;;;;;;5068326;28;20172;-80
2021/11/27 08:03:49;;;;;;;8.18;5.60;;;1.40;99.90;;;;;;5068455;28;20183;-81
2021/11/27 08:06:15;;;;;;;11.68;6.07;;;1.40;99.90;;;;;;5069631;28;20654;-81
2021/11/27 08:08:41;;;;;;;7.40;5.43;;;1.40;99.90;;;;;;5069645;28;20212;-82
2021/11/27 08:11:08;;;;;;;7.70;5.15;;;1.50;99.90;;;;;;5069568;28;20164;-82
2021/11/27 08:13:34;;;;;;;9.60;5.85;;;1.60;99.90;;;;;;5069542;28;20168;-82
2021/11/27 08:16:00;;;;;;;7.03;5.72;;;1.60;99.90;;;;;;5068308;28;20203;-83
2021/11/27 08:18:26;;;;;;;8.02;5.55;;;1.50;99.90;;;;;;5068143;28;20165;-82
2021/11/27 08:20:52;;;;;;;6.75;5.10;;;1.60;99.90;;;;;;5069414;28;20630;-83
2021/11/27 08:23:19;;;;;;;10.00;6.50;;;1.60;99.90;;;;;;5069479;28;20156;-83
2021/11/27 08:25:46;;;;;;;7.68;5.40;;;1.60;99.90;;;;;;5069399;28;20252;-83
2021/11/27 08:28:13;;;;;;;7.68;5.07;;;1.60;99.90;;;;;;5069408;28;20161;-83
2021/11/27 08:30:39;;;;;;;6.63;4.93;;;1.70;99.90;;;;;;5069334;28;20153;-81
2021/11/27 08:33:06;;;;;;;6.45;5.75;;;1.70;99.90;;;;;;5069224;28;20610;-82
2021/11/27 08:35:32;;;;;;;8.73;5.95;;;1.80;99.90;;;;;;5068833;28;20186;-83
2021/11/27 08:37:58;;;;;;;11.68;8.05;;;1.70;99.90;;;;;;5069257;28;20185;-83
2021/11/27 08:40:24;;;;;;;9.00;6.90;;;1.60;99.90;;;;;;5067802;28;20202;-82
2021/11/27 08:42:50;;;;;;;9.43;7.18;;;1.60;99.90;;;;;;5067848;28;20177;-81
2021/11/27 08:45:17;;;;;;;11.00;6.55;;;1.50;99.90;;;;;;5067844;28;20202;-80
2021/11/27 08:47:43;;;;;;;8.65;5.53;;;1.60;99.90;;;;;;5067740;28;20287;-80
2021/11/27 08:50:11;;;;;;;9.00;5.88;;;1.50;99.90;;;;;;5069107;28;20161;-80
2021/11/27 08:52:37;;;;;;;9.20;5.90;;;1.50;99.90;;;;;;5069092;28;20196;-80
2021/11/27 08:55:05;;;;;;;9.77;7.03;;;1.50;99.90;;;;;;5069016;28;20189;-80
2021/11/27 08:57:33;;;;;;;7.88;6.13;;;1.60;99.90;;;;;;5067471;28;20339;-81
2021/11/27 09:00:01;;;;;;;7.85;5.60;;;1.50;99.90;;;;;;5068934;28;20204;-81
2021/11/27 09:02:27;;;;;;;8.82;5.47;;;1.60;99.90;;;;;;5068964;28;20167;-80
2021/11/27 09:04:53;;;;;;;6.45;4.85;;;1.70;99.90;;;;;;5066123;28;20161;-78
2021/11/27 09:07:19;;;;;;;10.00;6.60;;;1.70;99.90;;;;;;5065450;28;20218;-78
2021/11/27 09:09:46;;;;;;;8.02;6.30;;;1.70;99.90;;;;;;5072561;28;20246;-77
2021/11/27 09:12:15;;;;;;;9.68;5.68;;;1.80;99.90;;;;;;5088189;28;20199;-75
2021/11/27 09:14:42;;;;;;;9.25;6.82;;;1.80;99.90;;;;;;5087102;28;20164;-76
2021/11/27 09:17:08;;;;;;;8.48;5.63;;;1.90;99.90;;;;;;5088922;28;20563;-76
2021/11/27 09:19:34;;;;;;;11.40;6.65;;;1.90;99.90;;;;;;5088657;28;20163;-76
2021/11/27 09:22:02;;;;;;;18.35;10.27;;;1.90;99.90;;;;;;5088616;28;20577;-76
2021/11/27 09:24:28;;;;;;;12.90;8.40;;;1.90;99.90;;;;;;5088577;28;20160;-76
2021/11/27 09:26:54;;;;;;;11.93;6.57;;;1.90;99.90;;;;;;5088748;28;20212;-76
2021/11/27 09:29:20;;;;;;;13.02;8.02;;;1.90;99.90;;;;;;5088755;28;20178;-77
2021/11/27 09:31:47;;;;;;;13.98;7.82;;;1.90;99.90;;;;;;5087277;28;20203;-76
2021/11/27 09:34:14;;;;;;;6.88;4.82;;;1.90;99.90;;;;;;5087353;28;20167;-75
2021/11/27 09:36:41;;;;;;;8.80;6.15;;;1.90;99.90;;;;;;5088508;28;20191;-75
2021/11/27 09:39:12;;;;;;;10.68;6.38;;;1.90;99.90;;;;;;5087372;28;20174;-75
2021/11/27 09:41:42;;;;;;;10.85;6.03;;;2.00;99.90;;;;;;5088658;28;20164;-76
2021/11/27 09:44:08;;;;;;;11.02;6.80;;;2.00;99.90;;;;;;5088666;28;20206;-76
2021/11/27 09:46:36;;;;;;;13.70;8.23;;;2.00;99.90;;;;;;5087111;28;20267;-75
2021/11/27 09:49:09;;;;;;;12.25;6.88;;;2.00;99.90;;;;;;5068368;28;20208;-76
2021/11/27 09:51:37;;;;;;;13.80;8.48;;;2.00;99.90;;;;;;5061532;28;20197;-75
2021/11/27 09:54:07;;;;;;;10.07;6.75;;;2.00;99.90;;;;;;5071915;28;20164;-75
2021/11/27 09:56:34;;;;;;;10.15;6.93;;;2.10;99.90;;;;;;5072112;28;20215;-76
2021/11/27 09:59:00;;;;;;;9.48;6.55;;;2.10;99.90;;;;;;5071889;28;20290;-75
2021/11/27 10:01:34;;;;;;;17.77;8.00;;;2.10;99.90;;;;;;5070579;28;20181;-77
2021/11/27 10:04:03;;;;;;;11.07;6.55;;;2.00;99.90;;;;;;5071729;28;20164;-76
2021/11/27 10:06:33;;;;;;;18.10;6.90;;;2.00;99.90;;;;;;5071881;28;20188;-76
2021/11/27 10:09:01;;;;;;;13.20;8.25;;;2.00;99.90;;;;;;5070637;28;20177;-78
2021/11/27 10:11:27;;;;;;;13.27;7.82;;;2.10;99.90;;;;;;5063261;28;20211;-77
2021/11/27 10:13:53;;;;;;;14.88;8.43;;;2.00;99.90;;;;;;5056472;28;20170;-77
2021/11/27 10:16:20;;;;;;;14.55;9.15;;;2.10;99.90;;;;;;5066279;28;20582;-77
2021/11/27 10:19:03;;;;;;;13.82;7.68;;;2.10;99.90;;;;;;5070643;28;20160;-77
2021/11/27 10:21:29;;;;;;;10.20;7.00;;;2.20;99.90;;;;;;5050454;28;20187;-77
2021/11/27 10:23:55;;;;;;;14.75;8.68;;;2.10;99.90;;;;;;5049988;28;20177;-77
2021/11/27 10:26:36;;;;;;;13.40;8.38;;;2.20;99.90;;;;;;5051367;28;20228;-76
2021/11/27 10:29:14;;;;;;;16.00;8.07;;;2.20;99.90;;;;;;5066677;28;20224;-77
2021/11/27 10:31:41;;;;;;;11.38;8.27;;;2.30;99.90;;;;;;5070366;28;20192;-74
2021/11/27 10:34:07;;;;;;;9.82;6.32;;;2.40;99.90;;;;;;5070830;28;20179;-75
2021/11/27 10:36:33;;;;;;;11.85;8.45;;;2.30;99.90;;;;;;5089942;28;20196;-75
2021/11/27 10:39:07;;;;;;;19.25;10.48;;;2.30;99.90;;;;;;5090228;28;20153;-75
2021/11/27 10:41:37;;;;;;;18.83;11.23;;;2.30;99.90;;;;;;5068030;28;20169;-74
2021/11/27 10:44:04;;;;;;;18.67;10.55;;;2.20;99.90;;;;;;5053587;28;20177;-75
2021/11/27 10:46:39;;;;;;;15.63;9.07;;;2.30;99.90;;;;;;5049541;28;20200;-80
2021/11/27 10:49:07;;;;;;;27.92;13.15;;;2.40;99.90;;;;;;5049728;28;20168;-78
2021/11/27 10:51:34;;;;;;;21.85;11.77;;;2.30;99.90;;;;;;5049626;28;20196;-77
2021/11/27 10:54:03;;;;;;;24.88;12.65;;;2.30;99.90;;;;;;5049566;28;20162;-78
2021/11/27 10:56:45;;;;;;;15.32;8.13;;;2.20;99.90;;;;;;5050871;28;20185;-78
2021/11/27 10:59:13;;;;;;;16.40;7.32;;;2.10;99.90;;;;;;5049332;28;20263;-81
2021/11/27 11:01:59;;;;;;;12.18;6.13;;;2.10;99.90;;;;;;5049695;28;20173;-79
2021/11/27 11:04:25;;;;;;;11.43;6.82;;;2.20;99.90;;;;;;5050528;28;20169;-81
2021/11/27 11:07:12;;;;;;;20.33;7.85;;;2.20;99.90;;;;;;5050815;28;20261;-80
2021/11/27 11:10:12;;;;;;;13.07;8.60;;;2.20;99.90;;;;;;5057380;28;20168;-79
2021/11/27 11:12:46;;;;;;;11.93;6.95;;;2.20;99.90;;;;;;5073758;28;20203;-80
2021/11/27 11:15:19;;;;;;;12.70;7.75;;;2.20;99.90;;;;;;5080088;28;20177;-79
2021/11/27 11:17:47;;;;;;;12.05;7.93;;;2.20;99.90;;;;;;5082642;28;20290;-78
2021/11/27 11:20:22;;;;;;;13.98;8.38;;;2.30;99.90;;;;;;5073548;28;20176;-78
2021/11/27 11:23:05;;;;;;;15.90;8.80;;;2.40;99.90;;;;;;5072970;28;20184;-78
2021/11/27 11:25:34;;;;;;;14.70;7.65;;;2.40;99.90;;;;;;5051148;28;20153;-78
2021/11/27 11:28:15;;;;;;;19.50;8.45;;;2.40;99.90;;;;;;5051133;28;20209;-78
2021/11/27 11:30:45;;;;;;;18.33;8.93;;;2.50;99.90;;;;;;5051348;28;20196;-77
2021/11/27 11:33:13;;;;;;;13.73;8.77;;;2.50;99.90;;;;;;5049168;28;20189;-77
2021/11/27 11:35:39;;;;;;;15.93;7.10;;;2.60;99.90;;;;;;5050650;28;20782;-78
2021/11/27 11:38:11;;;;;;;15.18;6.90;;;2.60;99.90;;;;;;5049575;28;20161;-79
2021/11/27 11:40:39;;;;;;;15.43;9.23;;;2.70;99.90;;;;;;5066135;28;20200;-78
2021/11/27 11:43:05;;;;;;;12.55;7.80;;;2.80;99.90;;;;;;5070295;28;20206;-78
2021/11/27 11:45:33;;;;;;;16.02;8.48;;;2.80;99.90;;;;;;5071415;28;20165;-78
2021/11/27 11:48:00;;;;;;;15.55;8.40;;;2.90;99.90;;;;;;5069581;28;20168;-79
2021/11/27 11:50:28;;;;;;;15.98;8.50;;;2.90;99.90;;;;;;5063939;28;20257;-78
2021/11/27 11:53:01;;;;;;;14.32;8.85;;;2.90;99.90;;;;;;5056926;28;20265;-77
2021/11/27 11:55:28;;;;;;;18.30;8.98;;;2.90;99.90;;;;;;5048394;28;20165;-80
2021/11/27 11:57:56;;;;;;;15.30;9.43;;;2.80;99.90;;;;;;5047939;28;20231;-78
2021/11/27 12:00:28;;;;;;;15.00;9.57;;;2.70;99.90;;;;;;5057234;28;20193;-77
2021/11/27 12:03:14;;;;;;;14.27;7.72;;;2.70;99.90;;;;;;5060666;28;20168;-77
2021/11/27 12:05:55;;;;;;;17.30;8.82;;;2.70;99.90;;;;;;5068366;28;20205;-76
2021/11/27 12:09:00;;;;;;;16.20;9.93;;;2.70;99.90;;;;;;5067698;28;20222;-78
2021/11/27 12:11:45;;;;;;;15.90;10.10;;;2.80;99.90;;;;;;5067627;28;20264;-77
2021/11/27 12:14:24;;;;;;;12.85;8.55;;;2.80;99.90;;;;;;5067568;28;20179;-77
2021/11/27 12:17:17;;;;;;;14.82;8.45;;;2.80;99.90;;;;;;5069389;28;20152;-77
2021/11/27 12:19:50;;;;;;;14.50;8.30;;;2.80;99.90;;;;;;5070210;28;20211;-79
2021/11/27 12:22:27;;;;;;;13.80;8.25;;;2.90;99.90;;;;;;5070494;28;20192;-77
2021/11/27 12:25:13;;;;;;;10.90;7.63;;;3.00;99.90;;;;;;5068546;28;20168;-78
2021/11/27 12:28:02;;;;;;;11.85;7.28;;;3.00;99.90;;;;;;5069516;28;20239;-77
2021/11/27 12:30:54;;;;;;;9.93;6.68;;;2.70;99.90;;;;;;5069445;28;20665;-77
2021/11/27 12:33:48;;;;;;;10.40;6.60;;;2.60;99.90;;;;;;5069389;28;20219;-77
2021/11/27 12:36:30;;;;;;;14.30;7.75;;;2.60;99.90;;;;;;5068960;28;20240;-77
2021/11/27 12:39:02;;;;;;;9.57;6.28;;;2.60;99.90;;;;;;5069587;28;20187;-77
2021/11/27 12:41:31;;;;;;;11.43;6.63;;;2.70;99.90;;;;;;5067794;28;20220;-76
2021/11/27 12:44:16;;;;;;;12.23;8.10;;;2.90;99.90;;;;;;5066239;28;20165;-77
2021/11/27 12:46:50;;;;;;;13.65;6.50;;;2.90;99.90;;;;;;5066848;28;20172;-77
2021/11/27 12:49:31;;;;;;;13.38;7.68;;;3.00;99.90;;;;;;5068455;28;20199;-76
2021/11/27 12:52:15;;;;;;;14.75;7.47;;;3.10;99.90;;;;;;5066514;28;20637;-77